Impacts METAR Board
IDs:

KPHL - Philadelphia Intl, PA, US

Updated at: 1100 UTC 24 Jan 2019
Potential Impact None Slight Moderate High
Time 23/23Z 24/00Z 24/01Z 24/02Z 24/03Z 24/04Z 24/05Z 24/06Z 24/07Z 24/08Z 24/09Z 24/10Z 24/11Z
Temp44 46 46 48 50 53 53 53 53 53 55 56 55
Dewpt35 36 38 41 44 46 48 48 48 49 51 51 53
Altim30.06 30.03 30.01 29.98 29.95 29.93 29.91 29.88 29.84 29.80 29.75 29.70 29.66
VIS10 10 10 10 10 10 10 10 10 10 10 10 8
CIG250 250 55 150 65 23 25 22 23 23 21 50 46
CoverBKNBKNOVCOVCOVCOVCOVCOVCOVCOVCOVCOVCOVC
FltCatVFRVFRVFRVFRVFRMVFRMVFRMVFRMVFRMVFRMVFRVFRVFR
WX-----------------------RA-RA
WDir1601700200200200180190180190190180180
WSpd4 4 3 8 9 12 10 8 9 7 12 15 17
WGst-- -- -- -- -- -- -- -- -- -- -- 22 24
Raw hourly METARs
KPHL 232254Z 16004KT 10SM SCT055 BKN250 07/02 A3006 RMK AO2 SLP177 T00670017 $
KPHL 232354Z 17004KT 10SM FEW050 BKN250 08/02 A3003 RMK AO2 SLP167 T00780022 10089 20056 56028 $
KPHL 240054Z VRB03KT 10SM BKN055 OVC250 08/03 A3001 RMK AO2 SLP162 T00780033 $
KPHL 240154Z 20008KT 10SM SCT070 BKN150 OVC250 09/05 A2998 RMK AO2 SLP151 T00890050 $
KPHL 240254Z 20009KT 10SM BKN065 OVC140 10/07 A2995 RMK AO2 SLP143 T01000067 58024 $
KPHL 240401Z 20012KT 10SM BKN023 OVC045 12/08 A2993 RMK AO2 T01170078 $
KPHL 240454Z 18010KT 10SM BKN025 OVC055 12/09 A2991 RMK AO2 RAB26E43 SLP129 P0001 T01170089 401171022 $
KPHL 240554Z 19008KT 10SM OVC022 12/09 A2988 RMK AO2 SLP117 P0001 60002 T01170089 10122 20050 58026 $
KPHL 240654Z 18009KT 10SM BKN023 OVC040 12/09 A2984 RMK AO2 RAB18E42 SLP103 P0001 T01170089 $
KPHL 240754Z 19007KT 10SM BKN023 OVC040 12/09 A2980 RMK AO2 RAB19E30 SLP091 P0001 T01170094 $
KPHL 240854Z 19012KT 10SM BKN021 OVC038 13/11 A2975 RMK AO2 RAB10E53 SLP073 P0001 60003 T01280106 58044 $
KPHL 240954Z 18015G22KT 10SM -RA SCT018 BKN050 OVC075 13/11 A2970 RMK AO2 RAB50 SLP057 P0002 T01330106 $
KPHL 241054Z 18017G24KT 8SM -RA FEW025 BKN046 OVC065 13/12 A2966 RMK AO2 SLP043 P0013 T01280117 $



Page loaded:  11:09 UTC  |   03:09 AM Pacific  |   04:09 AM Mountain  |   05:09 AM Central  |   06:09 AM Eastern

 

ADVISORIES

FORECASTS

FORECASTS

OBSERVATIONS

USER TOOLS

ABOUT US